Time;durP1;ratioP1;P1;durP2;ratioP2;P2;SDS_P1;SDS_P2;PMS_P1;PMS_P2;Temp;Humidity;BMP_temperature;BMP_pressure;BME280_temperature;BME280_humidity;BME280_pressure;Samples;Min_cycle;Max_cycle;Signal;HPM_P1;HPM_P2
2021/05/07 00:01:59;;;;;;;19.77;10.98;;;;;;;12.35;62.42;99226.05;1674377;84;21231;-86
2021/05/07 00:04:26;;;;;;;21.35;11.10;;;;;;;12.29;62.61;99221.52;1672521;84;21303;-87
2021/05/07 00:06:57;;;;;;;21.62;11.65;;;;;;;12.20;63.78;99220.34;1672656;84;21143;-88
2021/05/07 00:09:23;;;;;;;21.93;11.95;;;;;;;12.21;63.41;99208.75;1678592;83;21116;-88
2021/05/07 00:11:51;;;;;;;21.07;11.03;;;;;;;12.14;64.10;99201.25;1670408;84;21368;-88
2021/05/07 00:14:17;;;;;;;;;;;;;;;12.39;63.02;99200.84;1677870;84;21202;-88
2021/05/07 00:16:43;;;;;;;24.43;11.25;;;;;;;12.45;63.05;99197.44;1671054;83;25479;-87
2021/05/07 00:19:11;;;;;;;25.72;12.00;;;;;;;12.18;63.40;99190.60;1674867;84;21229;-85
2021/05/07 00:21:40;;;;;;;;;;;;;;;12.11;63.51;99192.36;1674862;83;21491;-85
2021/05/07 00:24:10;;;;;;;22.75;11.28;;;;;;;12.08;63.63;99181.34;1667123;83;20277;-84
2021/05/07 00:26:36;;;;;;;21.65;11.83;;;;;;;12.10;63.51;99176.16;1674531;83;21227;-85
2021/05/07 00:29:02;;;;;;;22.58;12.20;;;;;;;12.24;62.89;99181.58;1647511;84;25924;-85
2021/05/07 00:31:29;;;;;;;25.32;11.50;;;;;;;12.27;62.87;99175.39;1677184;84;21177;-85
2021/05/07 00:33:58;;;;;;;;;;;;;;;12.16;63.43;99174.08;1654327;84;21187;-87
2021/05/07 00:36:24;;;;;;;21.07;11.15;;;;;;;12.12;63.95;99174.16;1672966;83;21396;-86
2021/05/07 00:38:50;;;;;;;20.48;11.38;;;;;;;12.10;63.91;99178.80;1682043;84;27006;-86
2021/05/07 00:41:18;;;;;;;22.60;11.55;;;;;;;12.07;64.02;99181.02;1669943;84;25438;-87
2021/05/07 00:43:45;;;;;;;;;;;;;;;11.93;64.75;99174.78;1688577;84;21208;-84
2021/05/07 00:46:17;;;;;;;24.63;12.33;;;;;;;11.79;65.53;99173.80;1688289;84;20303;-86
2021/05/07 00:48:46;;;;;;;25.75;12.68;;;;;;;11.62;66.12;99173.22;1692494;83;22145;-85
2021/05/07 00:51:21;;;;;;;24.95;12.37;;;;;;;11.48;66.85;99166.96;1692256;84;21203;-85
2021/05/07 00:53:48;;;;;;;26.48;12.58;;;;;;;11.62;66.26;99166.61;1689410;83;21148;-85
2021/05/07 00:56:18;;;;;;;20.35;11.25;;;;;;;11.71;65.71;99164.16;1667470;84;21468;-87
2021/05/07 00:58:45;;;;;;;24.72;12.33;;;;;;;11.58;66.17;99160.07;1716955;82;21189;-86
2021/05/07 01:01:14;;;;;;;22.55;12.45;;;;;;;11.37;67.21;99161.66;1692338;83;21976;-85
2021/05/07 01:03:43;;;;;;;21.87;11.90;;;;;;;11.34;67.77;99158.05;1691558;82;21158;-85
2021/05/07 01:06:12;;;;;;;21.87;12.13;;;;;;;11.44;67.30;99159.91;1688716;84;21172;-85
2021/05/07 01:08:39;;;;;;;21.33;11.30;;;;;;;11.56;66.98;99160.73;1690824;84;21206;-85
2021/05/07 01:11:05;;;;;;;23.32;12.40;;;;;;;11.65;66.86;99162.27;1686665;83;21196;-85
2021/05/07 01:13:33;;;;;;;22.40;12.13;;;;;;;11.71;66.67;99157.55;1689367;83;21627;-84
2021/05/07 01:15:59;;;;;;;;;;;;;;;11.75;66.75;99160.14;1670972;83;21139;-84
2021/05/07 01:18:28;;;;;;;21.33;11.10;;;;;;;11.82;66.57;99157.07;1690529;83;20220;-86
2021/05/07 01:20:55;;;;;;;21.12;11.08;;;;;;;11.89;66.38;99157.64;1713693;82;21197;-86
2021/05/07 01:23:25;;;;;;;20.77;11.15;;;;;;;11.79;66.81;99152.16;1690520;83;21169;-86
2021/05/07 01:25:52;;;;;;;23.18;12.10;;;;;;;11.65;67.81;99147.23;1689421;83;21417;-86
2021/05/07 01:28:19;;;;;;;;;;;;;;;11.50;68.04;99140.66;1672000;83;21673;-84
2021/05/07 01:30:50;;;;;;;23.12;12.05;;;;;;;11.38;68.66;99135.55;1718146;82;20312;-87
2021/05/07 01:33:20;;;;;;;27.20;11.85;;;;;;;11.33;68.77;99132.66;1689314;83;21173;-86
2021/05/07 01:35:49;;;;;;;24.37;12.35;;;;;;;11.36;69.00;99140.20;1688587;84;21699;-86
2021/05/07 01:38:18;;;;;;;20.77;11.65;;;;;;;11.40;68.92;99136.17;1688105;83;21260;-87
2021/05/07 01:40:52;;;;;;;25.43;11.97;;;;;;;11.52;68.81;99135.70;1689627;84;21532;-85
2021/05/07 01:43:19;;;;;;;21.23;11.45;;;;;;;11.59;68.42;99131.28;1691598;83;21631;-85
2021/05/07 01:45:51;;;;;;;18.77;10.48;;;;;;;11.52;68.36;99130.41;1699288;83;21208;-85
2021/05/07 01:48:21;;;;;;;20.90;10.68;;;;;;;11.50;68.14;99129.28;1692697;83;21242;-85
2021/05/07 01:50:51;;;;;;;21.80;10.63;;;;;;;11.64;67.64;99131.05;1701235;82;21343;-85
2021/05/07 01:53:20;;;;;;;25.88;10.93;;;;;;;11.63;68.12;99129.91;1705459;81;21223;-85
2021/05/07 01:55:50;;;;;;;18.98;10.45;;;;;;;11.67;67.76;99131.18;1699549;83;21683;-85
2021/05/07 01:58:19;;;;;;;19.87;11.12;;;;;;;11.65;67.94;99127.89;1703516;82;21184;-85
2021/05/07 02:00:47;;;;;;;19.02;10.45;;;;;;;11.43;68.79;99125.22;1698556;82;21171;-85
2021/05/07 02:03:12;;;;;;;;;;;;;;;11.30;69.82;99114.52;1705384;82;21365;-85
2021/05/07 02:05:39;;;;;;;21.07;10.23;;;;;;;11.33;70.37;99114.15;1700818;83;20215;-88
2021/05/07 02:08:05;;;;;;;20.70;10.78;;;;;;;11.11;71.26;99113.30;1698224;83;22560;-88
2021/05/07 02:10:32;;;;;;;19.23;10.33;;;;;;;11.02;71.55;99102.52;1704328;83;21184;-88
2021/05/07 02:13:04;;;;;;;19.32;10.53;;;;;;;11.25;70.66;99103.70;1669331;83;21188;-84
2021/05/07 02:15:30;;;;;;;18.15;9.78;;;;;;;11.20;70.83;99095.48;1727218;81;21826;-84
2021/05/07 02:17:57;;;;;;;19.07;10.05;;;;;;;11.07;71.48;99091.69;1690196;83;27116;-84
2021/05/07 02:20:26;;;;;;;20.68;10.40;;;;;;;11.03;71.83;99087.80;1699093;83;21209;-84
2021/05/07 02:22:52;;;;;;;21.02;9.90;;;;;;;11.16;70.82;99085.00;1700461;82;21189;-85
2021/05/07 02:25:21;;;;;;;20.72;9.80;;;;;;;11.22;70.94;99083.73;1671510;84;21199;-85
2021/05/07 02:27:56;;;;;;;20.80;10.35;;;;;;;11.37;70.60;99080.22;1703498;83;21316;-85
2021/05/07 02:30:31;;;;;;;19.45;9.93;;;;;;;11.40;70.30;99074.56;1698546;82;21560;-87
2021/05/07 02:32:57;;;;;;;19.90;10.08;;;;;;;11.38;70.74;99070.78;1702463;83;21277;-84
2021/05/07 02:35:26;;;;;;;21.35;10.15;;;;;;;11.37;70.44;99067.81;1696026;84;21026;-84
2021/05/07 02:37:55;;;;;;;19.52;10.32;;;;;;;11.17;71.35;99064.16;1703244;83;21221;-85
2021/05/07 02:40:22;;;;;;;16.70;9.98;;;;;;;11.02;71.75;99054.45;1698361;83;22053;-84
2021/05/07 02:42:48;;;;;;;20.32;10.55;;;;;;;10.96;71.89;99059.16;1698052;83;21192;-84
2021/05/07 02:45:16;;;;;;;16.12;9.60;;;;;;;11.02;71.94;99054.45;1690574;83;25631;-85
2021/05/07 02:47:42;;;;;;;;;;;;;;;11.13;71.54;99049.99;1666974;83;21988;-85
2021/05/07 02:50:11;;;;;;;15.83;8.70;;;;;;;11.12;72.17;99048.37;1693707;83;25347;-86
2021/05/07 02:52:44;;;;;;;20.00;10.38;;;;;;;11.25;71.49;99048.20;1693365;83;21361;-84
2021/05/07 02:55:13;;;;;;;20.72;10.23;;;;;;;11.17;72.12;99046.98;1689080;83;21120;-84
2021/05/07 02:57:42;;;;;;;21.95;11.00;;;;;;;11.17;72.58;99035.09;1688776;84;21287;-85
2021/05/07 03:00:09;;;;;;;19.27;10.18;;;;;;;11.22;72.55;99039.33;1694058;83;21140;-84
2021/05/07 03:02:37;;;;;;;21.02;10.93;;;;;;;11.31;72.30;99036.84;1695871;83;21168;-85
2021/05/07 03:05:07;;;;;;;21.57;10.75;;;;;;;11.30;72.53;99032.59;1673591;83;21207;-84
2021/05/07 03:07:34;;;;;;;21.17;11.12;;;;;;;11.39;72.23;99026.66;1699216;82;21620;-84
2021/05/07 03:10:05;;;;;;;21.10;11.10;;;;;;;11.52;71.53;99025.98;1688792;84;21221;-85
2021/05/07 03:12:31;;;;;;;20.68;11.10;;;;;;;11.54;71.71;99021.31;1691222;83;21188;-85
2021/05/07 03:15:00;;;;;;;20.32;11.57;;;;;;;11.54;71.24;99022.12;1693998;83;26753;-84
2021/05/07 03:17:33;;;;;;;20.95;11.53;;;;;;;11.65;70.89;99027.40;1685605;84;21219;-85
2021/05/07 03:20:01;;;;;;;20.12;11.08;;;;;;;11.71;70.64;99022.67;1691383;83;21205;-84
2021/05/07 03:22:31;;;;;;;21.82;10.72;;;;;;;11.74;70.70;99024.94;1691270;83;21677;-85
2021/05/07 03:24:58;;;;;;;19.27;11.03;;;;;;;11.77;70.68;99017.13;1689848;83;21188;-84
2021/05/07 03:27:29;;;;;;;20.02;11.22;;;;;;;11.79;70.65;99015.94;1688743;83;21303;-84
2021/05/07 03:29:58;;;;;;;18.98;10.75;;;;;;;11.79;70.79;99015.94;1693967;83;21268;-85
2021/05/07 03:32:26;;;;;;;21.82;11.25;;;;;;;11.81;71.01;99019.20;1693916;83;21187;-85
2021/05/07 03:34:56;;;;;;;19.92;10.95;;;;;;;11.83;70.83;99018.49;1688459;83;21208;-86
2021/05/07 03:37:23;;;;;;;22.15;11.35;;;;;;;11.82;71.00;99020.84;1693394;83;21168;-85
2021/05/07 03:39:50;;;;;;;;;;;;;;;11.77;71.15;99019.26;1697734;82;21187;-84
2021/05/07 03:42:17;;;;;;;;;;;;;;;11.82;71.15;99013.39;1693748;84;21239;-84
2021/05/07 03:44:46;;;;;;;24.45;11.10;;;;;;;11.82;71.42;99008.94;1683564;83;20278;-84
2021/05/07 03:47:13;;;;;;;21.15;11.68;;;;;;;11.88;71.24;99009.98;1671623;84;21175;-86
2021/05/07 03:49:43;;;;;;;21.27;11.12;;;;;;;11.85;71.60;99009.87;1650852;84;21171;-87
2021/05/07 03:52:13;;;;;;;19.07;10.50;;;;;;;11.85;71.49;99005.91;1669858;83;21191;-87
2021/05/07 03:54:43;;;;;;;22.10;11.65;;;;;;;11.81;71.76;99000.69;1672126;84;21571;-86
2021/05/07 03:57:11;;;;;;;22.73;11.48;;;;;;;11.75;72.09;99001.45;1673933;84;21093;-87
2021/05/07 03:59:39;;;;;;;23.40;11.93;;;;;;;11.96;71.93;99003.75;1650815;84;22008;-86
2021/05/07 04:02:04;;;;;;;;;;;;;;;12.24;70.80;98999.75;1674566;84;21230;-85
2021/05/07 04:04:33;;;;;;;21.48;11.10;;;;;;;12.29;70.78;99001.81;1672407;83;27945;-88
2021/05/07 04:07:01;;;;;;;22.00;11.68;;;;;;;12.24;70.97;99002.91;1667096;83;21909;-88
2021/05/07 04:09:34;;;;;;;;;;;;;;;12.39;70.62;99002.28;1675256;84;21459;-86
2021/05/07 04:11:57;;;;;;;21.50;11.15;;;;;;;12.04;71.86;98999.62;1671809;83;20246;-87
2021/05/07 04:14:24;;;;;;;20.88;11.63;;;;;;;12.31;71.04;99004.58;1679758;83;21223;-84
2021/05/07 04:16:52;;;;;;;22.22;11.20;;;;;;;12.42;70.73;99007.18;1674787;84;21163;-86
2021/05/07 04:19:22;;;;;;;;;;;;;;;12.42;70.50;99001.89;1652614;84;21231;-84
2021/05/07 04:21:50;;;;;;;19.95;10.90;;;;;;;12.02;72.23;98997.69;1669819;83;20576;-84
2021/05/07 04:24:19;;;;;;;21.42;11.12;;;;;;;12.04;72.29;98998.30;1672099;83;21202;-84
2021/05/07 04:26:47;;;;;;;21.60;10.85;;;;;;;11.99;73.18;99002.88;1670159;84;21225;-84
2021/05/07 04:29:15;;;;;;;22.95;12.07;;;;;;;11.92;74.00;99002.02;1671977;84;21132;-85
2021/05/07 04:31:43;;;;;;;;;;;;;;;11.91;74.35;99003.50;1680777;84;21708;-84
2021/05/07 04:34:12;;;;;;;23.60;12.63;;;;;;;11.78;74.93;98998.42;1677310;84;20286;-84
2021/05/07 04:36:39;;;;;;;24.52;13.38;;;;;;;11.72;75.07;98993.91;1681548;84;21133;-86
2021/05/07 04:39:11;;;;;;;26.35;13.58;;;;;;;11.73;75.73;98994.22;1674176;83;21215;-86
2021/05/07 04:41:36;;;;;;;28.05;13.78;;;;;;;11.73;75.88;98994.22;1675319;83;21148;-84
2021/05/07 04:44:08;;;;;;;21.90;12.68;;;;;;;11.88;74.94;98986.69;1677452;83;21198;-85
2021/05/07 04:46:34;;;;;;;24.45;13.20;;;;;;;11.93;74.78;98992.23;1689817;84;21144;-84
2021/05/07 04:49:02;;;;;;;23.47;12.50;;;;;;;12.02;74.62;98991.08;1688426;82;25317;-84
2021/05/07 04:51:29;;;;;;;26.48;12.93;;;;;;;12.07;74.23;98987.33;1692275;83;21090;-84
2021/05/07 04:53:59;;;;;;;20.60;11.60;;;;;;;12.14;73.94;98994.01;1716373;82;21291;-85
2021/05/07 04:56:27;;;;;;;20.10;10.70;;;;;;;12.00;74.59;98990.46;1691637;84;21400;-85
2021/05/07 04:58:58;;;;;;;18.90;10.55;;;;;;;11.96;74.67;98990.05;1687257;83;21026;-86
2021/05/07 05:01:29;;;;;;;19.17;10.50;;;;;;;12.08;74.31;98995.59;1692169;83;21145;-84
2021/05/07 05:03:55;;;;;;;17.70;9.68;;;;;;;11.95;74.95;98996.34;1685944;83;21185;-85
2021/05/07 05:06:24;;;;;;;15.93;9.58;;;;;;;12.02;74.54;98989.75;1715042;82;20974;-84
2021/05/07 05:08:50;;;;;;;17.30;9.30;;;;;;;11.63;76.26;98995.05;1692165;82;21209;-86
2021/05/07 05:11:24;;;;;;;16.00;9.18;;;;;;;11.65;76.50;98998.31;1695065;82;27088;-87
2021/05/07 05:13:53;;;;;;;17.02;9.05;;;;;;;11.61;76.61;99002.36;1691192;84;21097;-86
2021/05/07 05:16:19;;;;;;;17.45;9.03;;;;;;;11.49;77.30;99002.86;1690835;83;21240;-86
2021/05/07 05:18:47;;;;;;;18.10;8.50;;;;;;;11.50;77.49;99000.54;1712535;82;21156;-85
2021/05/07 05:21:13;;;;;;;16.62;8.53;;;;;;;11.38;78.21;99006.53;1689061;83;21635;-85
2021/05/07 05:23:42;;;;;;;15.50;8.50;;;;;;;11.16;79.42;99001.77;1690269;84;21675;-85
2021/05/07 05:26:11;;;;;;;17.02;8.20;;;;;;;11.39;78.90;99005.03;1672447;83;21209;-84
2021/05/07 05:28:42;;;;;;;13.83;7.78;;;;;;;11.36;79.15;99000.12;1691734;83;21187;-84
2021/05/07 05:31:08;;;;;;;14.43;7.60;;;;;;;11.44;78.86;99001.30;1689040;82;21263;-84
2021/05/07 05:33:36;;;;;;;14.30;7.90;;;;;;;11.45;79.35;98997.66;1672413;84;22039;-85
2021/05/07 05:36:04;;;;;;;;;;;;;;;11.61;79.04;98999.72;1676814;83;22079;-84
2021/05/07 05:38:40;;;;;;;14.13;7.20;;;;;;;11.56;79.21;99002.09;1715535;82;20664;-83
2021/05/07 05:41:08;;;;;;;12.90;7.42;;;;;;;11.58;79.34;98996.14;1692287;83;21075;-84
2021/05/07 05:43:36;;;;;;;15.85;7.78;;;;;;;11.46;79.49;99000.59;1691739;84;21225;-84
2021/05/07 05:46:07;;;;;;;13.50;7.22;;;;;;;11.62;78.81;98997.37;1688982;83;21398;-85
2021/05/07 05:48:36;;;;;;;13.05;7.40;;;;;;;11.69;78.66;98999.58;1690859;82;21672;-85
2021/05/07 05:51:02;;;;;;;12.37;6.80;;;;;;;11.59;78.80;98999.08;1690005;84;21185;-85
2021/05/07 05:53:29;;;;;;;12.90;6.55;;;;;;;11.60;78.94;98996.23;1692621;83;28919;-84
2021/05/07 05:55:58;;;;;;;11.10;6.20;;;;;;;11.06;80.27;98994.96;1690353;83;21216;-85
2021/05/07 05:58:32;;;;;;;11.25;5.85;;;;;;;11.36;79.65;98991.35;1673921;82;21580;-87
2021/05/07 06:00:59;;;;;;;11.38;6.10;;;;;;;11.49;79.18;98996.25;1696025;82;21223;-85
2021/05/07 06:03:25;;;;;;;11.95;5.83;;;;;;;11.57;78.43;98997.13;1695113;82;21248;-84
2021/05/07 06:05:54;;;;;;;11.33;6.00;;;;;;;11.59;78.64;98993.78;1696995;83;21138;-85
2021/05/07 06:08:22;;;;;;;9.73;5.90;;;;;;;11.63;78.40;99004.30;1696936;84;21224;-86
2021/05/07 06:10:47;;;;;;;;;;;;;;;11.76;77.84;99005.74;1688968;84;21643;-86
2021/05/07 06:13:14;;;;;;;12.80;5.75;;;;;;;11.71;77.83;98997.55;1694024;82;20591;-85
2021/05/07 06:15:44;;;;;;;10.82;5.75;;;;;;;11.77;77.54;98999.42;1674510;82;21583;-88
2021/05/07 06:18:10;;;;;;;11.33;5.42;;;;;;;11.78;76.72;98995.78;1692326;82;21648;-84
2021/05/07 06:20:40;;;;;;;8.45;4.67;;;;;;;11.54;77.03;98996.20;1692830;82;21506;-87
2021/05/07 06:23:09;;;;;;;8.90;5.03;;;;;;;11.19;77.29;99003.52;1692888;83;22195;-81
2021/05/07 06:25:38;;;;;;;8.48;5.10;;;;;;;11.52;76.91;98998.22;1694962;83;21236;-84
2021/05/07 06:28:07;;;;;;;7.53;4.90;;;;;;;11.52;77.17;98992.94;1715463;82;21201;-84
2021/05/07 06:30:37;;;;;;;10.23;4.97;;;;;;;11.59;77.22;98995.11;1689909;84;21220;-85
2021/05/07 06:33:03;;;;;;;7.70;4.53;;;;;;;11.39;77.49;98997.09;1688428;84;21594;-83
2021/05/07 06:35:29;;;;;;;9.47;4.40;;;;;;;11.19;76.92;98990.81;1671620;84;21228;-84
2021/05/07 06:37:59;;;;;;;9.10;4.28;;;;;;;11.33;76.72;98989.92;1689012;83;21256;-84
2021/05/07 06:40:26;;;;;;;8.75;4.65;;;;;;;11.41;76.53;98996.39;1693471;83;21240;-84
2021/05/07 06:42:51;;;;;;;;;;;;;;;11.34;77.43;98994.19;1689438;83;21628;-84
2021/05/07 06:45:19;;;;;;;7.58;4.30;;;;;;;11.39;77.04;98991.81;1692167;84;20223;-84
2021/05/07 06:47:49;;;;;;;5.95;3.77;;;;;;;11.44;76.82;98992.05;1642420;84;22132;-85
2021/05/07 06:50:20;;;;;;;9.38;4.10;;;;;;;11.62;76.39;98988.12;1688970;83;21201;-85
2021/05/07 06:52:47;;;;;;;6.50;3.70;;;;;;;11.61;75.68;98985.98;1692303;83;21165;-84
2021/05/07 06:55:19;;;;;;;7.58;3.83;;;;;;;11.74;75.03;98991.06;1692671;83;21187;-86
2021/05/07 06:57:46;;;;;;;6.47;3.62;;;;;;;11.54;76.06;98986.94;1668949;84;21259;-85
2021/05/07 07:00:15;;;;;;;5.97;3.42;;;;;;;11.58;75.74;98981.59;1690141;83;21998;-84
2021/05/07 07:02:45;;;;;;;6.92;3.25;;;;;;;11.79;75.68;98986.00;1690852;84;21249;-85
2021/05/07 07:05:16;;;;;;;5.53;3.40;;;;;;;11.73;75.25;98983.64;1690490;83;22341;-85
2021/05/07 07:07:43;;;;;;;6.78;3.40;;;;;;;11.83;75.03;98982.78;1689462;83;21211;-86
2021/05/07 07:10:10;;;;;;;7.37;3.72;;;;;;;11.69;75.10;98975.77;1690321;83;21246;-84
2021/05/07 07:12:39;;;;;;;6.28;3.60;;;;;;;11.70;75.13;98980.06;1692980;83;21240;-84
2021/05/07 07:15:12;;;;;;;6.95;3.70;;;;;;;11.75;74.40;98971.55;1695205;83;21608;-83
2021/05/07 07:17:39;;;;;;;7.47;3.70;;;;;;;11.82;74.80;98973.23;1691179;84;21213;-82
2021/05/07 07:20:08;;;;;;;8.80;4.15;;;;;;;11.91;74.53;98978.36;1668868;84;21134;-80
2021/05/07 07:22:35;;;;;;;6.75;3.80;;;;;;;11.79;74.89;98974.10;1690007;83;21201;-88
2021/05/07 07:25:00;;;;;;;7.03;4.00;;;;;;;11.90;75.00;98976.72;1692976;83;21120;-91
2021/05/07 07:27:29;;;;;;;6.72;3.70;;;;;;;11.96;75.04;98973.33;1691475;83;27250;-89
2021/05/07 07:29:59;;;;;;;7.50;3.87;;;;;;;12.02;74.60;98975.20;1692650;83;21074;-90
2021/05/07 07:32:26;;;;;;;8.35;3.70;;;;;;;11.81;74.72;98975.55;1690154;83;21188;-89
2021/05/07 07:34:54;;;;;;;;;;;;;;;11.98;75.07;98972.66;1693458;83;21174;-87
2021/05/07 07:37:21;;;;;;;8.90;3.55;;;;;;;12.08;75.27;98974.42;1692104;83;20279;-88
2021/05/07 07:39:46;;;;;;;6.95;3.92;;;;;;;12.10;75.45;98980.33;1692893;83;21208;-88
2021/05/07 07:42:15;;;;;;;7.40;3.87;;;;;;;12.10;75.48;98975.03;1692480;83;26595;-91
2021/05/07 07:44:45;;;;;;;7.45;4.20;;;;;;;11.95;75.13;98976.49;1688567;83;21198;-90
2021/05/07 07:47:12;;;;;;;7.40;3.85;;;;;;;12.20;75.63;98976.02;1682871;83;21072;-87
2021/05/07 07:49:44;;;;;;;6.50;3.98;;;;;;;12.09;74.30;98981.36;1649759;84;21698;-86
2021/05/07 07:52:15;;;;;;;6.12;3.87;;;;;;;12.21;74.77;98981.13;1670000;83;21679;-86
2021/05/07 07:54:42;;;;;;;8.38;4.30;;;;;;;12.27;75.31;98980.83;1673662;84;21227;-83
2021/05/07 07:57:08;;;;;;;7.53;3.90;;;;;;;12.19;75.13;98979.16;1673243;84;21226;-84
2021/05/07 07:59:35;;;;;;;8.55;4.30;;;;;;;12.02;75.54;98981.81;1664533;84;20929;-82
2021/05/07 08:02:01;;;;;;;7.53;4.30;;;;;;;11.84;75.93;98979.14;1672879;84;22102;-86
2021/05/07 08:04:28;;;;;;;10.15;4.08;;;;;;;11.84;76.26;98985.75;1673742;84;27547;-85
2021/05/07 08:06:54;;;;;;;;;;;;;;;11.73;76.53;98986.77;1651254;84;21470;-82
2021/05/07 08:09:21;;;;;;;8.10;3.87;;;;;;;11.36;77.15;98986.91;1673563;84;20179;-86
2021/05/07 08:11:52;;;;;;;6.00;3.87;;;;;;;11.47;77.29;98989.02;1680021;83;21199;-86
2021/05/07 08:14:18;;;;;;;8.40;4.08;;;;;;;11.34;77.56;98990.22;1672387;83;21296;-83
2021/05/07 08:16:46;;;;;;;7.00;4.08;;;;;;;11.23;78.27;98984.12;1676255;83;21255;-84
2021/05/07 08:19:12;;;;;;;9.08;4.12;;;;;;;11.49;77.96;98984.36;1675424;84;21227;-83
2021/05/07 08:21:42;;;;;;;5.97;3.85;;;;;;;11.53;77.78;98987.94;1651877;84;21666;-81
2021/05/07 08:24:09;;;;;;;7.05;3.80;;;;;;;11.36;77.38;98994.83;1673562;83;21191;-82
2021/05/07 08:26:37;;;;;;;8.63;4.45;;;;;;;11.46;77.43;98999.27;1676269;84;21146;-83
2021/05/07 08:29:03;;;;;;;;;;;;;;;11.34;76.70;99002.11;1675757;84;22507;-83
2021/05/07 08:31:34;;;;;;;6.05;3.33;;;;;;;11.34;77.00;99002.11;1686997;83;25815;-86
2021/05/07 08:34:05;;;;;;;6.60;3.85;;;;;;;11.17;77.82;99008.66;1679152;83;21253;-84
2021/05/07 08:36:31;;;;;;;6.55;3.92;;;;;;;11.45;77.68;99004.27;1674580;83;21732;-86
2021/05/07 08:38:58;;;;;;;10.82;6.67;;;;;;;11.37;78.58;99017.59;1669139;83;22950;-86
2021/05/07 08:41:27;;;;;;;11.05;7.37;;;;;;;11.29;78.87;99015.09;1677442;84;21195;-88
2021/05/07 08:43:55;;;;;;;13.68;6.90;;;;;;;11.30;77.86;99016.73;1673239;84;21191;-87
2021/05/07 08:46:25;;;;;;;11.90;6.90;;;;;;;11.48;76.09;99022.88;1678873;83;21183;-89
2021/05/07 08:48:51;;;;;;;9.58;6.22;;;;;;;11.50;75.96;99028.30;1676859;83;21195;-87
2021/05/07 08:51:21;;;;;;;10.70;5.97;;;;;;;11.33;75.25;99029.57;1683873;83;39338;-88
2021/05/07 08:53:47;;;;;;;8.65;5.92;;;;;;;11.50;74.56;99030.14;1658212;85;21216;-86
2021/05/07 08:56:14;;;;;;;10.00;6.40;;;;;;;11.68;74.25;99021.73;1675701;84;25303;-85
2021/05/07 08:58:44;;;;;;;;;;;;;;;11.76;74.10;99026.90;1678326;84;21136;-83
2021/05/07 09:01:11;;;;;;;11.28;5.80;;;;;;;11.69;73.98;99028.66;1676036;84;20652;-87
2021/05/07 09:03:47;;;;;;;;;;;;;;;11.70;74.03;99038.25;1679079;84;21240;-83
2021/05/07 09:06:26;;;;;;;10.58;5.90;;;;;;;11.73;74.07;99035.22;1676617;83;20312;-86
2021/05/07 09:08:56;;;;;;;9.58;5.83;;;;;;;11.77;74.15;99033.80;1676639;84;21101;-87
2021/05/07 09:11:26;;;;;;;10.15;5.30;;;;;;;11.77;75.00;99040.42;1657118;85;21211;-86
2021/05/07 09:14:09;;;;;;;9.18;5.10;;;;;;;11.96;73.53;99042.95;1676026;84;21179;-85
2021/05/07 09:16:35;;;;;;;8.63;5.03;;;;;;;12.07;73.12;99046.88;1677047;83;21116;-86
2021/05/07 09:19:04;;;;;;;8.05;4.50;;;;;;;12.08;71.75;99052.48;1683427;82;21393;-84
2021/05/07 09:21:37;;;;;;;8.95;4.70;;;;;;;12.09;71.43;99052.81;1676571;83;21214;-85
2021/05/07 09:24:10;;;;;;;9.75;4.90;;;;;;;12.23;70.92;99055.52;1674883;84;21685;-82
2021/05/07 09:26:51;;;;;;;7.30;4.70;;;;;;;12.31;71.07;99055.39;1639057;85;21264;-85
2021/05/07 09:29:20;;;;;;;7.97;4.58;;;;;;;12.25;71.56;99055.66;1675865;84;21203;-79
2021/05/07 09:31:48;;;;;;;7.50;4.30;;;;;;;12.25;71.32;99059.62;1671985;84;21210;-88
2021/05/07 09:34:25;;;;;;;6.22;3.90;;;;;;;12.43;71.01;99056.48;1676456;83;26753;-83
2021/05/07 09:36:50;;;;;;;7.60;4.25;;;;;;;12.45;69.94;99065.05;1676828;85;21172;-80
2021/05/07 09:39:22;;;;;;;6.60;4.17;;;;;;;12.45;69.82;99067.69;1679760;83;21022;-80
2021/05/07 09:41:54;;;;;;;7.53;3.95;;;;;;;12.39;69.51;99073.77;1675703;84;21220;-80
2021/05/07 09:44:28;;;;;;;6.28;3.87;;;;;;;12.35;69.72;99075.16;1678945;84;21248;-81
2021/05/07 09:46:55;;;;;;;8.55;4.75;;;;;;;12.37;69.60;99071.83;1691784;83;21157;-81
2021/05/07 09:49:30;;;;;;;6.87;4.20;;;;;;;12.17;70.31;99079.12;1700406;83;21584;-82
2021/05/07 09:51:57;;;;;;;6.80;3.92;;;;;;;12.31;69.21;99081.87;1699371;82;21590;-82
2021/05/07 09:54:28;;;;;;;6.20;3.90;;;;;;;12.32;68.90;99086.13;1700193;83;22167;-81
2021/05/07 09:56:55;;;;;;;6.17;3.87;;;;;;;12.13;69.58;99091.09;1698050;83;21412;-81
2021/05/07 09:59:23;;;;;;;5.92;3.50;;;;;;;12.20;69.53;99093.29;1701409;83;21201;-82
2021/05/07 10:01:49;;;;;;;;;;;;;;;12.08;69.59;99104.09;1702615;83;22051;-83
2021/05/07 10:04:19;;;;;;;6.28;3.92;;;;;;;12.07;69.77;99098.47;1700958;83;20284;-81
2021/05/07 10:06:48;;;;;;;7.15;3.47;;;;;;;12.14;69.48;99092.73;1699819;82;21930;-82
2021/05/07 10:09:23;;;;;;;7.25;3.60;;;;;;;12.06;70.04;99092.05;1704087;82;21135;-82
2021/05/07 10:11:52;;;;;;;5.85;3.37;;;;;;;12.14;69.29;99095.38;1696519;83;21103;-82
2021/05/07 10:14:18;;;;;;;5.25;3.20;;;;;;;12.22;68.92;99103.69;1698233;82;21220;-82
2021/05/07 10:16:45;;;;;;;4.50;3.12;;;;;;;12.11;68.30;99102.38;1701427;82;21055;-83
2021/05/07 10:19:15;;;;;;;4.50;2.47;;;;;;;12.12;67.39;99104.03;1699894;82;21233;-81
2021/05/07 10:21:46;;;;;;;4.92;2.90;;;;;;;12.13;67.90;99106.16;1703083;83;21639;-80
2021/05/07 10:24:17;;;;;;;3.42;2.27;;;;;;;12.10;67.61;99123.23;1700522;83;21277;-79
2021/05/07 10:26:52;;;;;;;3.83;2.60;;;;;;;12.26;67.23;99123.96;1697609;83;21193;-84
2021/05/07 10:29:28;;;;;;;5.95;2.80;;;;;;;12.37;66.90;99122.13;1699151;82;21483;-83
2021/05/07 10:31:55;;;;;;;3.55;1.80;;;;;;;12.40;66.96;99125.72;1699965;83;22083;-84
2021/05/07 10:34:23;;;;;;;;;;;;;;;12.25;64.33;99131.09;1701199;82;21426;-85
2021/05/07 10:36:54;;;;;;;2.25;1.80;;;;;;;12.31;64.75;99132.16;1701441;83;20310;-84
2021/05/07 10:39:28;;;;;;;2.98;1.98;;;;;;;12.27;64.31;99138.84;1727632;82;21651;-83
2021/05/07 10:41:56;;;;;;;3.05;1.80;;;;;;;12.31;64.11;99141.43;1703761;82;21153;-82
2021/05/07 10:44:23;;;;;;;3.47;2.27;;;;;;;12.30;64.77;99141.91;1696705;83;21690;-83
2021/05/07 10:47:06;;;;;;;8.58;2.40;;;;;;;12.35;65.40;99155.41;1692652;83;21240;-83
2021/05/07 10:49:40;;;;;;;5.58;2.22;;;;;;;12.50;64.42;99147.36;1693457;83;21769;-84
2021/05/07 10:52:10;;;;;;;3.37;2.15;;;;;;;12.66;64.79;99152.88;1696733;82;21181;-87
2021/05/07 10:54:43;;;;;;;4.47;2.40;;;;;;;12.60;64.00;99149.68;1693173;83;21695;-85
2021/05/07 10:57:29;;;;;;;4.62;2.72;;;;;;;12.47;64.79;99145.09;1687997;83;21620;-86
2021/05/07 11:00:03;;;;;;;4.20;2.85;;;;;;;12.52;64.91;99140.05;1689100;83;21081;-84
2021/05/07 11:02:29;;;;;;;4.40;2.52;;;;;;;12.51;64.80;99139.73;1691006;84;21201;-84
2021/05/07 11:04:55;;;;;;;6.40;2.45;;;;;;;12.48;64.73;99137.47;1689937;82;21319;-86
2021/05/07 11:07:32;;;;;;;4.00;2.30;;;;;;;12.66;64.74;99142.77;1688231;83;20955;-85
2021/05/07 11:10:04;;;;;;;7.45;2.40;;;;;;;12.77;64.72;99136.95;1687905;83;21196;-85
2021/05/07 11:12:30;;;;;;;3.85;2.02;;;;;;;12.85;64.68;99130.16;1691019;83;21264;-85
2021/05/07 11:14:58;;;;;;;4.50;2.10;;;;;;;12.91;63.76;99134.67;1688906;84;20950;-84
2021/05/07 11:17:24;;;;;;;4.00;2.05;;;;;;;13.01;63.81;99136.95;1693614;83;21200;-85
2021/05/07 11:19:50;;;;;;;3.52;2.05;;;;;;;13.06;62.46;99148.28;1695530;82;20925;-87
2021/05/07 11:22:16;;;;;;;4.22;1.90;;;;;;;13.38;62.51;99136.73;1691581;82;21041;-86
2021/05/07 11:24:42;;;;;;;3.58;2.00;;;;;;;13.26;61.88;99151.02;1693040;82;20919;-87
2021/05/07 11:27:28;;;;;;;3.40;1.85;;;;;;;13.35;61.98;99143.75;1669200;84;21216;-85
2021/05/07 11:30:05;;;;;;;3.05;1.85;;;;;;;13.34;61.81;99144.76;1694042;83;21177;-84
2021/05/07 11:32:36;;;;;;;2.72;1.95;;;;;;;13.39;60.01;99143.16;1691156;83;21635;-86
2021/05/07 11:35:09;;;;;;;3.87;2.17;;;;;;;13.57;60.27;99133.81;1690391;84;22150;-86
2021/05/07 11:37:35;;;;;;;4.45;2.22;;;;;;;13.67;60.29;99132.09;1687298;82;21212;-87
2021/05/07 11:40:17;;;;;;;2.73;1.77;;;;;;;13.73;61.05;99140.57;1670060;84;21199;-85